Varzelandia, Brazil
Current Conditions -  °F | °C
As of 1:00 PM on Saturday 25 Oct 2014 (Local Time) from SBMK Reporting Station
Scattered Clouds Scattered Clouds  
Wind Chill: 88°   Ceiling: Unl
Heat Index: 88°   Visibility: 6mi
Dew Point: 54°   Wind: 8mph
Humidity: 31%   Direction: 20°NNE
Pressure: 29.97"   Gusts: NA
Location:  15.7°S, 44.03°W
Report Text: SBMK 251500Z 02007KT 260V070 9999 SCT040 31/12 Q1015
Loading
Personal Weather Stations






























Interactive Weather Map
Tropical Storm Tracking
New forecast layout! Learn more

10-Day Weather Forecast

Advertisements
Track Severe Weather on mobile